Flight Track Log - Related Links

Times and Time Zones

All times are in EDT time to prevent confusion due to time zone crossing. See the RHC9808 flight status page for this flight to view local times or setup timezone preferences in your user account.

Time Position Orientation Groundspeed Altitude Reporting Facility
EDT Latitude Longitude Course Direction KTS MPH feet Rate Location/Type
Mon 07:37:00 PM 24.5094 102.5084 213° Southwest  Level Estimated
Mon 07:38:00 PM 24.4352 102.4561 213° Southwest  Level Estimated
Mon 07:39:00 PM 24.3610 102.4039 213° Southwest  Level Estimated
Mon 07:40:00 PM 24.2869 102.3517 213° Southwest  Level Estimated
Mon 07:41:00 PM 24.2127 102.2995 213° Southwest  Level Estimated
Mon 07:42:00 PM 24.1384 102.2475 213° Southwest  Level Estimated
Mon 07:43:00 PM 24.0642 102.1955 213° Southwest  Level Estimated
Mon 07:44:00 PM 23.9899 102.1435 213° Southwest  Level Estimated
Mon 07:45:00 PM 23.9156 102.0916 213° Southwest  Level Estimated
Mon 07:46:00 PM 23.8414 102.0398 213° Southwest  Level Estimated
Mon 07:47:00 PM 23.7670 101.9880 213° Southwest  Level Estimated
Mon 07:48:00 PM 23.6927 101.9363 213° Southwest  Level Estimated
Mon 07:49:00 PM 23.6184 101.8847 212° Southwest  Level Estimated
Mon 07:50:00 PM 23.5440 101.8331 212° Southwest  Level Estimated
Mon 07:51:00 PM 23.4696 101.7815 212° Southwest  Level Estimated
Mon 07:52:00 PM 23.3952 101.7301 212° Southwest  Level Estimated
Mon 07:53:00 PM 23.3208 101.6786 212° Southwest  Level Estimated
Mon 07:54:00 PM 23.2464 101.6273 212° Southwest  Level Estimated
Mon 07:55:00 PM 23.1719 101.5760 212° Southwest  Level Estimated
Mon 07:56:00 PM 23.0975 101.5247 212° Southwest  Level Estimated
Mon 07:57:00 PM 23.0230 101.4735 212° Southwest  Level Estimated
Mon 07:58:00 PM 22.9485 101.4224 212° Southwest  Level Estimated
Mon 07:59:00 PM 22.8740 101.3713 212° Southwest  Level Estimated
Mon 08:00:00 PM 22.7994 101.3203 212° Southwest  Level Estimated
Mon 08:01:00 PM 22.7249 101.2694 212° Southwest  Level Estimated
Mon 08:02:00 PM 22.6503 101.2185 212° Southwest  Level Estimated
Mon 08:03:00 PM 22.5758 101.1676 212° Southwest  Level Estimated
Mon 08:04:00 PM 22.5012 101.1168 212° Southwest  Level Estimated
Mon 08:05:00 PM 22.4265 101.0661 212° Southwest  Level Estimated
Mon 08:06:00 PM 22.3519 101.0154 212° Southwest  Level Estimated
Mon 08:07:00 PM 22.2773 100.9647 212° Southwest  Level Estimated
Mon 08:08:00 PM 22.2026 100.9142 212° Southwest  Level Estimated
Mon 08:09:00 PM 22.1280 100.8636 212° Southwest  Level Estimated
Mon 08:10:00 PM 22.0533 100.8132 212° Southwest  Level Estimated
Mon 08:11:00 PM 21.9786 100.7627 212° Southwest  Level Estimated
Mon 08:12:00 PM 21.9739 100.7596 212° Southwest  Level Estimated
Mon 08:13:00 PM 21.9739 100.7596 13° North  Level Estimated
Mon 08:14:00 PM 21.9739 100.7596 13° North  Level Estimated
Mon 08:15:00 PM 21.9739 100.7596 13° North  Level Estimated
Mon 08:16:00 PM 21.9739 100.7596 13° North  Level Estimated
Mon 08:17:00 PM 21.9739 100.7596 13° North  Level Estimated
Mon 08:18:00 PM 21.9739 100.7596 13° North  Level Estimated

Login

Don't have an account? Register now (free) for customized features, flight alerts, and more!